sensor_id;sensor_type;location;lat;lon;timestamp;pressure;altitude;pressure_sealevel;temperature;humidity
76321;BME280;65132;52.088;5.402;2023-06-14T00:01:17;101569.25;;;17.88;56.32
76321;BME280;65132;52.088;5.402;2023-06-14T00:03:45;101580.03;;;17.82;56.62
76321;BME280;65132;52.088;5.402;2023-06-14T00:06:39;101575.75;;;17.79;56.76
76321;BME280;65132;52.088;5.402;2023-06-14T00:09:07;101575.75;;;17.79;58.12
76321;BME280;65132;52.088;5.402;2023-06-14T00:11:34;101573.34;;;17.76;58.40
76321;BME280;65132;52.088;5.402;2023-06-14T00:14:05;101577.31;;;17.74;59.05
76321;BME280;65132;52.088;5.402;2023-06-14T00:16:34;101577.47;;;17.72;58.45
76321;BME280;65132;52.088;5.402;2023-06-14T00:19:05;101568.56;;;17.62;59.94
76321;BME280;65132;52.088;5.402;2023-06-14T00:21:41;101580.88;;;17.50;58.79
76321;BME280;65132;52.088;5.402;2023-06-14T00:24:18;101575.28;;;17.52;58.01
76321;BME280;65132;52.088;5.402;2023-06-14T00:26:47;101578.00;;;17.52;58.23
76321;BME280;65132;52.088;5.402;2023-06-14T00:29:18;101583.94;;;17.39;59.12
76321;BME280;65132;52.088;5.402;2023-06-14T00:31:47;101585.31;;;17.27;60.31
76321;BME280;65132;52.088;5.402;2023-06-14T00:34:18;101584.97;;;17.22;60.48
76321;BME280;65132;52.088;5.402;2023-06-14T00:36:51;101581.53;;;17.20;60.35
76321;BME280;65132;52.088;5.402;2023-06-14T00:39:18;101578.78;;;17.12;60.03
76321;BME280;65132;52.088;5.402;2023-06-14T00:41:52;101590.03;;;17.01;60.31
76321;BME280;65132;52.088;5.402;2023-06-14T00:44:20;101586.41;;;16.85;61.21
76321;BME280;65132;52.088;5.402;2023-06-14T00:46:47;101587.06;;;16.70;59.90
76321;BME280;65132;52.088;5.402;2023-06-14T00:49:14;101595.22;;;16.62;60.25
76321;BME280;65132;52.088;5.402;2023-06-14T00:51:44;101586.16;;;16.62;61.35
76321;BME280;65132;52.088;5.402;2023-06-14T00:54:15;101586.53;;;16.67;61.99
76321;BME280;65132;52.088;5.402;2023-06-14T00:56:45;101584.28;;;16.62;63.65
76321;BME280;65132;52.088;5.402;2023-06-14T00:59:17;101584.66;;;16.67;62.20
76321;BME280;65132;52.088;5.402;2023-06-14T01:01:49;101581.22;;;16.65;62.34
76321;BME280;65132;52.088;5.402;2023-06-14T01:04:21;101595.41;;;16.69;62.63
76321;BME280;65132;52.088;5.402;2023-06-14T01:07:06;101592.81;;;16.51;63.72
76321;BME280;65132;52.088;5.402;2023-06-14T01:09:43;101591.94;;;16.51;64.09
76321;BME280;65132;52.088;5.402;2023-06-14T01:15:09;101585.66;;;16.33;65.94
76321;BME280;65132;52.088;5.402;2023-06-14T01:17:40;101586.69;;;16.32;65.97
76321;BME280;65132;52.088;5.402;2023-06-14T01:20:11;101595.16;;;16.21;67.10
76321;BME280;65132;52.088;5.402;2023-06-14T01:22:55;101599.34;;;16.07;65.15
76321;BME280;65132;52.088;5.402;2023-06-14T01:25:22;101589.03;;;15.93;65.48
76321;BME280;65132;52.088;5.402;2023-06-14T01:28:06;101591.22;;;15.90;65.51
76321;BME280;65132;52.088;5.402;2023-06-14T01:30:42;101588.38;;;15.99;66.77
76321;BME280;65132;52.088;5.402;2023-06-14T01:33:20;101590.25;;;15.99;66.29
76321;BME280;65132;52.088;5.402;2023-06-14T01:35:48;101588.22;;;16.01;65.66
76321;BME280;65132;52.088;5.402;2023-06-14T01:38:32;101583.06;;;15.98;65.70
76321;BME280;65132;52.088;5.402;2023-06-14T01:41:13;101589.72;;;15.95;65.96
76321;BME280;65132;52.088;5.402;2023-06-14T01:43:48;101587.97;;;15.86;67.32
76321;BME280;65132;52.088;5.402;2023-06-14T01:46:17;101596.78;;;15.80;67.77
76321;BME280;65132;52.088;5.402;2023-06-14T01:48:44;101588.28;;;15.83;68.32
76321;BME280;65132;52.088;5.402;2023-06-14T01:51:14;101598.13;;;15.76;68.96
76321;BME280;65132;52.088;5.402;2023-06-14T01:53:42;101595.47;;;15.67;68.71
76321;BME280;65132;52.088;5.402;2023-06-14T01:56:08;101594.94;;;15.63;68.48
76321;BME280;65132;52.088;5.402;2023-06-14T01:58:38;101591.97;;;15.56;68.47
76321;BME280;65132;52.088;5.402;2023-06-14T02:01:09;101583.97;;;15.55;67.61
76321;BME280;65132;52.088;5.402;2023-06-14T02:03:38;101591.38;;;15.45;67.42
76321;BME280;65132;52.088;5.402;2023-06-14T02:06:06;101589.88;;;15.33;67.73
76321;BME280;65132;52.088;5.402;2023-06-14T02:08:35;101586.44;;;15.31;68.09
76321;BME280;65132;52.088;5.402;2023-06-14T02:11:05;101587.78;;;15.27;68.48
76321;BME280;65132;52.088;5.402;2023-06-14T02:13:31;101589.66;;;15.26;68.97
76321;BME280;65132;52.088;5.402;2023-06-14T02:15:58;101589.59;;;15.18;68.42
76321;BME280;65132;52.088;5.402;2023-06-14T02:18:24;101585.59;;;15.13;68.80
76321;BME280;65132;52.088;5.402;2023-06-14T02:20:52;101589.09;;;15.05;68.67
76321;BME280;65132;52.088;5.402;2023-06-14T02:23:18;101587.63;;;15.11;69.31
76321;BME280;65132;52.088;5.402;2023-06-14T02:25:51;101584.28;;;14.99;69.39
76321;BME280;65132;52.088;5.402;2023-06-14T02:28:23;101583.00;;;14.94;70.41
76321;BME280;65132;52.088;5.402;2023-06-14T02:30:50;101588.47;;;14.94;70.99
76321;BME280;65132;52.088;5.402;2023-06-14T02:33:27;101591.97;;;14.86;70.99
76321;BME280;65132;52.088;5.402;2023-06-14T02:35:53;101587.88;;;14.73;71.37
76321;BME280;65132;52.088;5.402;2023-06-14T02:38:20;101592.13;;;14.58;71.23
76321;BME280;65132;52.088;5.402;2023-06-14T02:40:53;101592.84;;;14.32;72.10
76321;BME280;65132;52.088;5.402;2023-06-14T02:43:21;101592.91;;;14.04;72.34
76321;BME280;65132;52.088;5.402;2023-06-14T02:45:56;101600.97;;;13.96;74.14
76321;BME280;65132;52.088;5.402;2023-06-14T02:48:24;101603.84;;;13.85;74.76
76321;BME280;65132;52.088;5.402;2023-06-14T02:50:50;101602.56;;;13.89;75.02
76321;BME280;65132;52.088;5.402;2023-06-14T02:53:24;101605.59;;;13.86;74.07
76321;BME280;65132;52.088;5.402;2023-06-14T02:55:51;101610.44;;;13.92;73.27
76321;BME280;65132;52.088;5.402;2023-06-14T02:58:19;101592.25;;;13.92;73.46
76321;BME280;65132;52.088;5.402;2023-06-14T03:00:48;101597.28;;;13.87;73.10
76321;BME280;65132;52.088;5.402;2023-06-14T03:03:14;101609.91;;;13.79;73.28
76321;BME280;65132;52.088;5.402;2023-06-14T03:05:46;101610.59;;;13.71;72.66
76321;BME280;65132;52.088;5.402;2023-06-14T03:08:15;101612.59;;;13.69;72.80
76321;BME280;65132;52.088;5.402;2023-06-14T03:10:43;101617.22;;;13.59;73.65
76321;BME280;65132;52.088;5.402;2023-06-14T03:13:15;101623.25;;;13.53;74.86
76321;BME280;65132;52.088;5.402;2023-06-14T03:15:44;101624.97;;;13.45;74.83
76321;BME280;65132;52.088;5.402;2023-06-14T03:18:16;101633.25;;;13.53;75.51
76321;BME280;65132;52.088;5.402;2023-06-14T03:20:45;101621.38;;;13.44;75.44
76321;BME280;65132;52.088;5.402;2023-06-14T03:23:20;101625.53;;;13.48;75.61
76321;BME280;65132;52.088;5.402;2023-06-14T03:25:49;101629.38;;;13.46;74.85
76321;BME280;65132;52.088;5.402;2023-06-14T03:28:41;101628.38;;;13.37;75.21
76321;BME280;65132;52.088;5.402;2023-06-14T03:31:07;101632.69;;;13.40;76.07
76321;BME280;65132;52.088;5.402;2023-06-14T03:33:36;101631.69;;;13.41;75.99
76321;BME280;65132;52.088;5.402;2023-06-14T03:36:04;101633.53;;;13.40;75.89
76321;BME280;65132;52.088;5.402;2023-06-14T03:38:35;101629.69;;;13.43;75.79
76321;BME280;65132;52.088;5.402;2023-06-14T03:41:01;101643.13;;;13.35;75.54
76321;BME280;65132;52.088;5.402;2023-06-14T03:43:30;101636.09;;;13.32;75.33
76321;BME280;65132;52.088;5.402;2023-06-14T03:45:57;101641.84;;;13.29;74.64
76321;BME280;65132;52.088;5.402;2023-06-14T03:48:36;101643.25;;;13.23;74.93
76321;BME280;65132;52.088;5.402;2023-06-14T03:51:10;101644.25;;;13.32;74.31
76321;BME280;65132;52.088;5.402;2023-06-14T03:53:36;101642.97;;;13.27;74.17
76321;BME280;65132;52.088;5.402;2023-06-14T03:56:19;101653.28;;;13.33;75.54
76321;BME280;65132;52.088;5.402;2023-06-14T03:58:45;101652.16;;;13.45;74.80
76321;BME280;65132;52.088;5.402;2023-06-14T04:01:19;101659.72;;;13.51;75.50
76321;BME280;65132;52.088;5.402;2023-06-14T04:03:50;101654.28;;;13.51;75.35
76321;BME280;65132;52.088;5.402;2023-06-14T04:06:24;101655.84;;;13.63;74.73
76321;BME280;65132;52.088;5.402;2023-06-14T04:08:58;101657.44;;;13.65;74.00
76321;BME280;65132;52.088;5.402;2023-06-14T04:11:30;101667.91;;;13.60;74.56
76321;BME280;65132;52.088;5.402;2023-06-14T04:14:01;101666.44;;;13.66;74.85
76321;BME280;65132;52.088;5.402;2023-06-14T04:16:30;101669.44;;;13.72;74.56
76321;BME280;65132;52.088;5.402;2023-06-14T04:18:57;101671.03;;;13.75;74.00
76321;BME280;65132;52.088;5.402;2023-06-14T04:21:45;101669.16;;;13.66;73.96
76321;BME280;65132;52.088;5.402;2023-06-14T04:24:10;101677.59;;;13.72;74.07
76321;BME280;65132;52.088;5.402;2023-06-14T04:26:44;101677.75;;;13.71;74.05
76321;BME280;65132;52.088;5.402;2023-06-14T04:29:14;101668.31;;;13.75;73.98
76321;BME280;65132;52.088;5.402;2023-06-14T04:31:40;101679.63;;;13.80;74.72
76321;BME280;65132;52.088;5.402;2023-06-14T04:34:07;101672.03;;;13.83;74.88
76321;BME280;65132;52.088;5.402;2023-06-14T04:36:45;101684.19;;;13.89;74.72
76321;BME280;65132;52.088;5.402;2023-06-14T04:39:14;101681.31;;;13.90;75.37
76321;BME280;65132;52.088;5.402;2023-06-14T04:41:46;101674.72;;;13.93;75.13
76321;BME280;65132;52.088;5.402;2023-06-14T04:44:13;101682.63;;;13.96;75.12
76321;BME280;65132;52.088;5.402;2023-06-14T04:46:39;101685.88;;;14.09;74.47
76321;BME280;65132;52.088;5.402;2023-06-14T04:49:07;101681.69;;;14.24;73.95
76321;BME280;65132;52.088;5.402;2023-06-14T04:51:33;101677.91;;;14.44;73.38
76321;BME280;65132;52.088;5.402;2023-06-14T04:54:02;101689.63;;;14.54;74.07
76321;BME280;65132;52.088;5.402;2023-06-14T04:56:33;101684.16;;;14.64;75.30
76321;BME280;65132;52.088;5.402;2023-06-14T04:59:12;101687.09;;;14.80;75.19
76321;BME280;65132;52.088;5.402;2023-06-14T05:01:50;101693.06;;;14.93;74.20
76321;BME280;65132;52.088;5.402;2023-06-14T05:04:18;101687.63;;;15.10;72.51
76321;BME280;65132;52.088;5.402;2023-06-14T05:06:48;101685.50;;;15.31;71.19
76321;BME280;65132;52.088;5.402;2023-06-14T05:09:25;101688.56;;;15.46;69.71
76321;BME280;65132;52.088;5.402;2023-06-14T05:11:51;101685.84;;;15.64;68.80
76321;BME280;65132;52.088;5.402;2023-06-14T05:14:18;101699.00;;;15.86;68.04
76321;BME280;65132;52.088;5.402;2023-06-14T05:16:44;101691.50;;;16.05;66.62
76321;BME280;65132;52.088;5.402;2023-06-14T05:19:11;101702.72;;;16.20;65.94
76321;BME280;65132;52.088;5.402;2023-06-14T05:21:37;101698.38;;;16.35;65.46
76321;BME280;65132;52.088;5.402;2023-06-14T05:24:09;101692.19;;;16.50;65.62
76321;BME280;65132;52.088;5.402;2023-06-14T05:26:35;101694.50;;;16.63;65.09
76321;BME280;65132;52.088;5.402;2023-06-14T05:29:11;101690.81;;;16.80;64.91
76321;BME280;65132;52.088;5.402;2023-06-14T05:31:40;101709.78;;;16.82;64.35
76321;BME280;65132;52.088;5.402;2023-06-14T05:34:10;101706.94;;;16.99;64.46
76321;BME280;65132;52.088;5.402;2023-06-14T05:36:39;101706.84;;;17.09;63.29
76321;BME280;65132;52.088;5.402;2023-06-14T05:39:08;101705.97;;;17.16;62.95
76321;BME280;65132;52.088;5.402;2023-06-14T05:41:34;101705.00;;;17.25;61.29
76321;BME280;65132;52.088;5.402;2023-06-14T05:44:01;101706.03;;;17.32;62.21
76321;BME280;65132;52.088;5.402;2023-06-14T05:46:48;101713.47;;;17.48;60.41
76321;BME280;65132;52.088;5.402;2023-06-14T05:49:19;101709.75;;;17.57;60.61
76321;BME280;65132;52.088;5.402;2023-06-14T05:51:45;101710.09;;;17.78;59.14
76321;BME280;65132;52.088;5.402;2023-06-14T05:54:12;101720.22;;;17.85;58.57
76321;BME280;65132;52.088;5.402;2023-06-14T05:56:43;101715.75;;;17.84;57.24
76321;BME280;65132;52.088;5.402;2023-06-14T05:59:13;101718.16;;;18.04;58.37
76321;BME280;65132;52.088;5.402;2023-06-14T06:01:42;101721.41;;;18.07;57.83
76321;BME280;65132;52.088;5.402;2023-06-14T06:04:10;101714.91;;;18.24;57.93
76321;BME280;65132;52.088;5.402;2023-06-14T06:06:37;101726.38;;;18.20;56.79
76321;BME280;65132;52.088;5.402;2023-06-14T06:09:03;101727.59;;;18.41;56.45
76321;BME280;65132;52.088;5.402;2023-06-14T06:11:30;101727.56;;;18.57;56.90
76321;BME280;65132;52.088;5.402;2023-06-14T06:14:14;101722.50;;;18.85;55.53
76321;BME280;65132;52.088;5.402;2023-06-14T06:16:40;101733.97;;;18.88;55.80
76321;BME280;65132;52.088;5.402;2023-06-14T06:19:06;101727.09;;;19.00;55.55
76321;BME280;65132;52.088;5.402;2023-06-14T06:21:36;101728.03;;;19.16;54.03
76321;BME280;65132;52.088;5.402;2023-06-14T06:24:08;101716.56;;;19.20;53.19
76321;BME280;65132;52.088;5.402;2023-06-14T06:26:40;101724.72;;;19.36;53.78
76321;BME280;65132;52.088;5.402;2023-06-14T06:29:16;101734.06;;;19.58;51.87
76321;BME280;65132;52.088;5.402;2023-06-14T06:31:43;101726.88;;;19.79;51.34
76321;BME280;65132;52.088;5.402;2023-06-14T06:34:09;101726.97;;;19.63;52.61
76321;BME280;65132;52.088;5.402;2023-06-14T06:36:41;101738.81;;;20.17;50.72
76321;BME280;65132;52.088;5.402;2023-06-14T06:39:07;101733.69;;;20.06;50.57
76321;BME280;65132;52.088;5.402;2023-06-14T06:41:37;101732.34;;;20.24;49.62
76321;BME280;65132;52.088;5.402;2023-06-14T06:44:14;101742.94;;;20.50;48.84
76321;BME280;65132;52.088;5.402;2023-06-14T06:46:41;101731.75;;;20.52;48.36
76321;BME280;65132;52.088;5.402;2023-06-14T06:49:08;101748.09;;;20.68;48.16
76321;BME280;65132;52.088;5.402;2023-06-14T06:51:35;101743.38;;;20.91;47.99
76321;BME280;65132;52.088;5.402;2023-06-14T06:54:06;101749.00;;;21.26;47.35
76321;BME280;65132;52.088;5.402;2023-06-14T06:56:35;101759.63;;;21.15;47.25
76321;BME280;65132;52.088;5.402;2023-06-14T06:59:02;101757.03;;;21.42;46.64
76321;BME280;65132;52.088;5.402;2023-06-14T07:01:35;101757.66;;;21.59;45.15
76321;BME280;65132;52.088;5.402;2023-06-14T07:04:04;101757.56;;;21.67;45.19
76321;BME280;65132;52.088;5.402;2023-06-14T07:06:31;101755.09;;;21.72;46.16
76321;BME280;65132;52.088;5.402;2023-06-14T07:08:57;101756.69;;;21.81;44.96
76321;BME280;65132;52.088;5.402;2023-06-14T07:11:26;101751.97;;;21.61;44.96
76321;BME280;65132;52.088;5.402;2023-06-14T07:13:55;101767.63;;;21.89;45.05
76321;BME280;65132;52.088;5.402;2023-06-14T07:16:30;101755.72;;;22.31;44.27
76321;BME280;65132;52.088;5.402;2023-06-14T07:18:58;101765.06;;;22.30;43.01
76321;BME280;65132;52.088;5.402;2023-06-14T07:21:31;101763.84;;;21.97;43.99
76321;BME280;65132;52.088;5.402;2023-06-14T07:23:59;101770.16;;;22.33;43.58
76321;BME280;65132;52.088;5.402;2023-06-14T07:26:30;101764.97;;;22.66;42.52
76321;BME280;65132;52.088;5.402;2023-06-14T07:29:27;101768.97;;;22.63;41.82
76321;BME280;65132;52.088;5.402;2023-06-14T07:31:58;101771.03;;;22.12;42.72
76321;BME280;65132;52.088;5.402;2023-06-14T07:34:27;101768.00;;;22.28;43.67
76321;BME280;65132;52.088;5.402;2023-06-14T07:36:55;101770.78;;;22.77;42.64
76321;BME280;65132;52.088;5.402;2023-06-14T07:39:24;101776.75;;;22.81;41.71
76321;BME280;65132;52.088;5.402;2023-06-14T07:41:51;101772.94;;;22.82;41.16
76321;BME280;65132;52.088;5.402;2023-06-14T07:44:20;101777.56;;;23.09;40.44
76321;BME280;65132;52.088;5.402;2023-06-14T07:46:51;101774.66;;;23.17;40.35
76321;BME280;65132;52.088;5.402;2023-06-14T07:49:17;101779.91;;;23.39;39.63
76321;BME280;65132;52.088;5.402;2023-06-14T07:51:44;101776.44;;;23.31;39.75
76321;BME280;65132;52.088;5.402;2023-06-14T07:54:13;101782.69;;;23.05;39.63
76321;BME280;65132;52.088;5.402;2023-06-14T07:56:44;101785.31;;;23.60;40.24
76321;BME280;65132;52.088;5.402;2023-06-14T07:59:16;101792.22;;;23.84;40.74
76321;BME280;65132;52.088;5.402;2023-06-14T08:01:44;101786.91;;;23.96;40.04
76321;BME280;65132;52.088;5.402;2023-06-14T08:04:15;101802.03;;;23.93;39.46
76321;BME280;65132;52.088;5.402;2023-06-14T08:06:45;101784.88;;;24.11;38.74
76321;BME280;65132;52.088;5.402;2023-06-14T08:09:16;101789.00;;;24.80;38.09
76321;BME280;65132;52.088;5.402;2023-06-14T08:11:43;101789.59;;;24.62;36.17
76321;BME280;65132;52.088;5.402;2023-06-14T08:14:14;101790.91;;;24.73;37.59
76321;BME280;65132;52.088;5.402;2023-06-14T08:16:43;101781.97;;;24.77;37.26
76321;BME280;65132;52.088;5.402;2023-06-14T08:19:17;101782.78;;;25.04;35.67
76321;BME280;65132;52.088;5.402;2023-06-14T08:21:46;101780.00;;;24.19;36.31
76321;BME280;65132;52.088;5.402;2023-06-14T08:24:14;101785.38;;;24.53;36.53
76321;BME280;65132;52.088;5.402;2023-06-14T08:26:43;101789.41;;;24.90;36.06
76321;BME280;65132;52.088;5.402;2023-06-14T08:29:10;101786.44;;;24.92;35.35
76321;BME280;65132;52.088;5.402;2023-06-14T08:31:36;101793.63;;;25.19;34.27
76321;BME280;65132;52.088;5.402;2023-06-14T08:34:03;101793.75;;;25.56;33.04
76321;BME280;65132;52.088;5.402;2023-06-14T08:36:32;101789.44;;;25.67;33.30
76321;BME280;65132;52.088;5.402;2023-06-14T08:38:59;101788.94;;;25.83;34.02
76321;BME280;65132;52.088;5.402;2023-06-14T08:41:28;101786.38;;;24.26;35.07
76321;BME280;65132;52.088;5.402;2023-06-14T08:43:56;101787.06;;;24.54;34.05
76321;BME280;65132;52.088;5.402;2023-06-14T08:46:36;101778.88;;;25.31;33.90
76321;BME280;65132;52.088;5.402;2023-06-14T08:49:03;101776.44;;;26.12;33.60
76321;BME280;65132;52.088;5.402;2023-06-14T08:51:31;101788.50;;;25.79;32.25
76321;BME280;65132;52.088;5.402;2023-06-14T08:54:00;101787.66;;;25.28;32.86
76321;BME280;65132;52.088;5.402;2023-06-14T08:56:27;101790.75;;;26.09;32.57
76321;BME280;65132;52.088;5.402;2023-06-14T09:23:45;101788.44;;;26.61;30.72
76321;BME280;65132;52.088;5.402;2023-06-14T09:28:49;101794.13;;;26.97;30.79
76321;BME280;65132;52.088;5.402;2023-06-14T09:31:17;101803.56;;;26.72;29.27
76321;BME280;65132;52.088;5.402;2023-06-14T09:33:48;101804.91;;;26.87;30.20
76321;BME280;65132;52.088;5.402;2023-06-14T09:36:21;101798.31;;;26.57;29.54
76321;BME280;65132;52.088;5.402;2023-06-14T09:39:16;101807.03;;;25.92;29.62
76321;BME280;65132;52.088;5.402;2023-06-14T09:41:43;101801.66;;;25.97;30.43
76321;BME280;65132;52.088;5.402;2023-06-14T09:44:11;101800.16;;;26.01;28.93
76321;BME280;65132;52.088;5.402;2023-06-14T09:46:55;101793.56;;;26.33;30.36
76321;BME280;65132;52.088;5.402;2023-06-14T09:49:22;101801.09;;;26.57;28.77
76321;BME280;65132;52.088;5.402;2023-06-14T09:51:51;101799.31;;;26.00;29.81
76321;BME280;65132;52.088;5.402;2023-06-14T09:54:22;101783.88;;;26.98;29.49
76321;BME280;65132;52.088;5.402;2023-06-14T09:56:53;101784.38;;;27.67;28.80
76321;BME280;65132;52.088;5.402;2023-06-14T09:59:29;101789.16;;;27.78;28.34
76321;BME280;65132;52.088;5.402;2023-06-14T10:02:05;101789.50;;;27.34;27.45
76321;BME280;65132;52.088;5.402;2023-06-14T10:04:34;101791.56;;;27.57;27.09
76321;BME280;65132;52.088;5.402;2023-06-14T10:07:01;101785.63;;;28.19;28.39
76321;BME280;65132;52.088;5.402;2023-06-14T10:09:33;101782.13;;;28.65;27.38
76321;BME280;65132;52.088;5.402;2023-06-14T10:12:03;101780.31;;;28.59;26.05
76321;BME280;65132;52.088;5.402;2023-06-14T10:14:31;101786.97;;;28.28;26.92
76321;BME280;65132;52.088;5.402;2023-06-14T10:17:10;101786.25;;;28.03;27.19
76321;BME280;65132;52.088;5.402;2023-06-14T10:36:28;101784.22;;;28.40;25.95
76321;BME280;65132;52.088;5.402;2023-06-14T10:39:08;101790.09;;;28.20;26.57
76321;BME280;65132;52.088;5.402;2023-06-14T10:44:33;101782.06;;;27.64;26.36
76321;BME280;65132;52.088;5.402;2023-06-14T10:47:01;101791.59;;;27.14;27.36
76321;BME280;65132;52.088;5.402;2023-06-14T10:49:45;101789.31;;;27.83;27.45
76321;BME280;65132;52.088;5.402;2023-06-14T10:52:21;101777.72;;;28.57;27.47
76321;BME280;65132;52.088;5.402;2023-06-14T10:55:10;101780.06;;;28.31;27.99
76321;BME280;65132;52.088;5.402;2023-06-14T11:00:22;101767.19;;;28.18;27.51
76321;BME280;65132;52.088;5.402;2023-06-14T11:05:52;101781.25;;;28.23;27.89
76321;BME280;65132;52.088;5.402;2023-06-14T11:10:47;101783.84;;;29.00;26.44
76321;BME280;65132;52.088;5.402;2023-06-14T11:13:18;101783.09;;;28.93;27.00
76321;BME280;65132;52.088;5.402;2023-06-14T11:15:47;101771.56;;;29.48;27.35
76321;BME280;65132;52.088;5.402;2023-06-14T11:18:16;101772.13;;;30.01;26.67
76321;BME280;65132;52.088;5.402;2023-06-14T11:20:42;101788.91;;;29.50;26.47
76321;BME280;65132;52.088;5.402;2023-06-14T11:23:12;101777.78;;;28.80;25.60
76321;BME280;65132;52.088;5.402;2023-06-14T11:25:41;101776.00;;;27.38;27.33
76321;BME280;65132;52.088;5.402;2023-06-14T11:28:13;101777.66;;;28.75;27.86
76321;BME280;65132;52.088;5.402;2023-06-14T11:30:39;101767.34;;;29.22;25.64
76321;BME280;65132;52.088;5.402;2023-06-14T11:33:09;101775.47;;;29.35;27.02
76321;BME280;65132;52.088;5.402;2023-06-14T11:35:36;101767.13;;;28.36;27.45
76321;BME280;65132;52.088;5.402;2023-06-14T11:38:04;101764.44;;;29.05;27.53
76321;BME280;65132;52.088;5.402;2023-06-14T11:40:30;101760.66;;;29.46;26.28
76321;BME280;65132;52.088;5.402;2023-06-14T11:43:01;101762.22;;;29.54;27.78
76321;BME280;65132;52.088;5.402;2023-06-14T11:45:31;101768.59;;;30.05;26.29
76321;BME280;65132;52.088;5.402;2023-06-14T11:47:58;101770.34;;;29.95;25.25
76321;BME280;65132;52.088;5.402;2023-06-14T11:50:26;101759.28;;;29.60;25.76
76321;BME280;65132;52.088;5.402;2023-06-14T11:52:57;101754.88;;;30.04;24.87
76321;BME280;65132;52.088;5.402;2023-06-14T11:55:28;101763.84;;;29.26;25.17
76321;BME280;65132;52.088;5.402;2023-06-14T11:57:54;101753.97;;;29.87;27.47
76321;BME280;65132;52.088;5.402;2023-06-14T12:00:26;101763.44;;;30.14;25.43
76321;BME280;65132;52.088;5.402;2023-06-14T12:02:53;101753.66;;;28.97;25.96
76321;BME280;65132;52.088;5.402;2023-06-14T12:05:25;101750.13;;;29.02;27.96
76321;BME280;65132;52.088;5.402;2023-06-14T12:07:59;101761.22;;;29.99;27.82
76321;BME280;65132;52.088;5.402;2023-06-14T12:10:26;101759.03;;;30.29;27.59
76321;BME280;65132;52.088;5.402;2023-06-14T12:12:57;101755.84;;;31.25;24.76
76321;BME280;65132;52.088;5.402;2023-06-14T12:15:24;101762.41;;;30.31;26.15
76321;BME280;65132;52.088;5.402;2023-06-14T12:17:50;101760.56;;;30.09;24.33
76321;BME280;65132;52.088;5.402;2023-06-14T12:20:20;101752.84;;;29.99;24.53
76321;BME280;65132;52.088;5.402;2023-06-14T12:25:34;101768.34;;;29.16;25.66
76321;BME280;65132;52.088;5.402;2023-06-14T12:28:07;101766.34;;;29.51;25.49
76321;BME280;65132;52.088;5.402;2023-06-14T12:30:35;101761.72;;;29.96;25.40
76321;BME280;65132;52.088;5.402;2023-06-14T12:35:37;101766.16;;;29.81;26.17
76321;BME280;65132;52.088;5.402;2023-06-14T12:38:04;101761.72;;;30.24;25.11
76321;BME280;65132;52.088;5.402;2023-06-14T12:40:30;101767.69;;;28.15;27.07
76321;BME280;65132;52.088;5.402;2023-06-14T12:42:57;101772.81;;;28.94;25.60
76321;BME280;65132;52.088;5.402;2023-06-14T12:45:25;101766.97;;;29.42;25.14
76321;BME280;65132;52.088;5.402;2023-06-14T12:47:52;101759.72;;;28.94;26.53
76321;BME280;65132;52.088;5.402;2023-06-14T12:53:00;101762.69;;;29.62;25.00
76321;BME280;65132;52.088;5.402;2023-06-14T12:55:26;101766.09;;;30.20;24.63
76321;BME280;65132;52.088;5.402;2023-06-14T12:57:53;101753.25;;;29.91;24.80
76321;BME280;65132;52.088;5.402;2023-06-14T13:00:22;101766.91;;;30.04;24.29
76321;BME280;65132;52.088;5.402;2023-06-14T13:02:50;101768.63;;;29.66;23.82
76321;BME280;65132;52.088;5.402;2023-06-14T13:05:16;101770.28;;;29.15;25.51
76321;BME280;65132;52.088;5.402;2023-06-14T13:07:45;101770.25;;;29.90;25.57
76321;BME280;65132;52.088;5.402;2023-06-14T13:10:11;101769.81;;;30.71;24.01
76321;BME280;65132;52.088;5.402;2023-06-14T13:12:38;101774.72;;;29.39;25.48
76321;BME280;65132;52.088;5.402;2023-06-14T13:15:06;101764.09;;;30.04;26.68
76321;BME280;65132;52.088;5.402;2023-06-14T13:17:43;101772.09;;;29.84;25.31
76321;BME280;65132;52.088;5.402;2023-06-14T13:20:14;101771.84;;;30.42;25.23
76321;BME280;65132;52.088;5.402;2023-06-14T13:22:49;101776.19;;;29.07;26.64
76321;BME280;65132;52.088;5.402;2023-06-14T13:25:15;101775.16;;;29.71;24.86
76321;BME280;65132;52.088;5.402;2023-06-14T13:27:45;101782.59;;;28.96;26.25
76321;BME280;65132;52.088;5.402;2023-06-14T13:30:15;101775.13;;;28.85;26.49
76321;BME280;65132;52.088;5.402;2023-06-14T13:35:20;101776.84;;;29.09;26.01
76321;BME280;65132;52.088;5.402;2023-06-14T14:04:39;101770.59;;;29.93;25.64
76321;BME280;65132;52.088;5.402;2023-06-14T14:07:07;101760.41;;;30.43;25.45
76321;BME280;65132;52.088;5.402;2023-06-14T14:09:35;101752.28;;;30.92;25.96
76321;BME280;65132;52.088;5.402;2023-06-14T14:12:02;101762.44;;;30.65;25.20
76321;BME280;65132;52.088;5.402;2023-06-14T14:17:10;101744.97;;;31.45;26.38
76321;BME280;65132;52.088;5.402;2023-06-14T14:19:38;101746.28;;;31.59;28.07
76321;BME280;65132;52.088;5.402;2023-06-14T14:22:04;101757.38;;;31.76;25.21
76321;BME280;65132;52.088;5.402;2023-06-14T14:24:31;101751.88;;;30.83;23.93
76321;BME280;65132;52.088;5.402;2023-06-14T14:26:57;101757.88;;;29.86;24.55
76321;BME280;65132;52.088;5.402;2023-06-14T14:29:30;101756.88;;;30.20;23.71
76321;BME280;65132;52.088;5.402;2023-06-14T14:31:56;101759.31;;;30.61;24.40
76321;BME280;65132;52.088;5.402;2023-06-14T14:34:24;101753.72;;;30.94;24.53
76321;BME280;65132;52.088;5.402;2023-06-14T14:36:51;101753.88;;;31.04;23.35
76321;BME280;65132;52.088;5.402;2023-06-14T14:39:17;101748.06;;;30.56;23.74
76321;BME280;65132;52.088;5.402;2023-06-14T14:41:44;101751.00;;;30.66;25.39
76321;BME280;65132;52.088;5.402;2023-06-14T14:44:14;101752.19;;;30.09;23.54